バンクーバー の空港の天気 - METARとTAF

バンクーバー国際空港 ( CYVR / YVR ) - カナダ ブリティッシュコロンビア州バンクーバー
飛行場実況気象(Metar)
観測時間07/12 15:00 PDT (07/12 22:00 UTC)
風向・風速南西 4m/s
視程10km以上
天気現象
少しの雲 雲底高度 760m
少しの雲 雲底高度 1490m
少しの雲 雲底高度 2440m
少しの雲 雲底高度 4880m
気温19℃
湿度60%
気圧1019.9hPa
METARCYVR 122200Z 22008KT 20SM FEW025 FEW049 FEW080 FEW160 FEW230 19/11 A3011 RMK CU1CU1AC1AC1CI1 AC TR AC TR CI TR TCU TOPS ALQDS SLP199 DENSITY ALT 300FT
過去の天気等 Google飛行場航空写真 Wunderground天気予報

過去48時間のMETAR

飛行場予報(TAF)
発表時間: 7/12 13:38 PDT (7/12 20:38 UTC)
予報対象時間: 12日14時 PDT ~ 13日17時 PDT
風向・風速西 4m/s
視程10km以上
少しの雲 雲底高度 760m
全天の4割程度の雲 雲底高度 2440m
13日0時 PDT ~ 13日2時 PDT に徐々に
風向・風速東北東 3m/s
13日3時 PDT から
風向・風速東 4m/s
視程10km以上
全天の4割程度の雲 雲底高度 460m
13日3時 PDT ~ 13日10時 PDT に一時的に
全天の8割程度の雲 雲底高度 460m
13日11時 PDT から
風向・風速西 4m/s
視程10km以上
少しの雲 雲底高度 1520m
TAF CYVR 122038Z 1221/1324 26008KT P6SM FEW025 SCT080
BECMG 1307/1309 07006KT
FM131000 09008KT P6SM SCT015
TEMPO 1310/1317 BKN015
FM131800 26008KT P6SM FEW050 RMK NXT FCST BY 130000Z